createdAt,value
2018-01-14T00:00:09.504Z,19.00
2018-01-14T00:02:38.895Z,18.23
2018-01-14T00:05:08.331Z,18.45
2018-01-14T00:07:38.670Z,18.50
2018-01-14T00:10:08.127Z,17.60
2018-01-14T00:12:37.487Z,16.27
2018-01-14T00:15:07.820Z,19.67
2018-01-14T00:17:37.174Z,16.90
2018-01-14T00:20:06.533Z,16.08
2018-01-14T00:22:36.776Z,17.12
2018-01-14T00:25:06.144Z,16.62
2018-01-14T00:27:36.289Z,16.35
2018-01-14T00:30:05.692Z,16.05
2018-01-14T00:32:35.110Z,15.75
2018-01-14T00:35:04.542Z,16.00
2018-01-14T00:37:33.939Z,15.38
2018-01-14T00:40:03.336Z,15.20
2018-01-14T00:42:32.740Z,15.10
2018-01-14T00:45:02.191Z,14.23
2018-01-14T00:47:31.603Z,13.15
2018-01-14T00:50:01.052Z,12.90
2018-01-14T00:52:30.465Z,14.68
2018-01-14T00:54:59.863Z,14.02
2018-01-14T00:57:29.260Z,15.20
2018-01-14T00:59:58.650Z,17.15
2018-01-14T01:02:28.029Z,16.58
2018-01-14T01:04:57.438Z,15.98
2018-01-14T01:07:26.840Z,15.55
2018-01-14T01:09:56.233Z,15.05
2018-01-14T01:12:25.576Z,14.87
2018-01-14T01:14:54.935Z,13.48
2018-01-14T01:17:24.413Z,15.55
2018-01-14T01:19:54.531Z,14.93
2018-01-14T01:22:24.710Z,14.15
2018-01-14T01:24:54.114Z,14.27
2018-01-14T01:27:23.490Z,16.37
2018-01-14T01:29:52.883Z,15.55
2018-01-14T01:32:22.258Z,16.05
2018-01-14T01:34:51.678Z,16.62
2018-01-14T01:37:21.066Z,16.48
2018-01-14T01:39:51.250Z,17.33
2018-01-14T01:42:20.596Z,18.67
2018-01-14T01:44:50.771Z,17.25
2018-01-14T01:47:20.145Z,15.65
2018-01-14T01:49:49.572Z,15.70
2018-01-14T01:52:19.899Z,14.93
2018-01-14T01:54:49.268Z,15.82
2018-01-14T01:57:18.622Z,16.27
2018-01-14T01:59:48.021Z,17.30
2018-01-14T02:02:17.408Z,17.25
2018-01-14T02:04:46.764Z,18.08
2018-01-14T02:07:16.112Z,18.00
2018-01-14T02:09:45.555Z,17.65
2018-01-14T02:12:14.921Z,18.95
2018-01-14T02:14:44.318Z,18.85
2018-01-14T02:17:13.817Z,19.48
2018-01-14T02:19:43.308Z,19.50
2018-01-14T02:22:12.651Z,19.45
2018-01-14T02:24:42.078Z,19.48
2018-01-14T02:27:12.205Z,20.98
2018-01-14T02:29:42.360Z,18.98
2018-01-14T02:32:11.752Z,19.25
2018-01-14T02:34:41.191Z,22.90
2018-01-14T02:37:10.567Z,19.60
2018-01-14T02:39:39.927Z,21.17
2018-01-14T02:42:10.060Z,19.85
2018-01-14T02:44:39.463Z,19.45
2018-01-14T02:47:08.821Z,20.20
2018-01-14T02:49:38.238Z,19.90
2018-01-14T02:52:07.598Z,18.98
2018-01-14T02:54:37.032Z,18.90
2018-01-14T02:57:06.431Z,18.52
2018-01-14T02:59:35.853Z,20.35
2018-01-14T03:02:05.225Z,19.67
2018-01-14T03:04:34.593Z,19.85
2018-01-14T03:07:03.950Z,19.67
2018-01-14T03:09:33.355Z,20.42
2018-01-14T03:12:02.759Z,21.95
2018-01-14T03:14:32.121Z,21.40
2018-01-14T03:17:01.491Z,20.73
2018-01-14T03:19:30.831Z,21.15
2018-01-14T03:22:00.203Z,22.05
2018-01-14T03:24:29.615Z,22.00
2018-01-14T03:26:58.996Z,20.77
2018-01-14T03:29:28.419Z,20.35
2018-01-14T03:31:57.812Z,20.05
2018-01-14T03:34:27.211Z,20.20
2018-01-14T03:36:56.585Z,21.58
2018-01-14T03:39:26.006Z,20.85
2018-01-14T03:41:55.413Z,21.45
2018-01-14T03:44:24.777Z,20.75
2018-01-14T03:46:54.183Z,20.45
2018-01-14T03:49:23.544Z,18.00
2018-01-14T03:51:52.914Z,20.20
2018-01-14T03:54:23.077Z,21.33
2018-01-14T03:56:52.481Z,18.73
2018-01-14T03:59:21.875Z,20.50
2018-01-14T04:01:51.291Z,20.05
2018-01-14T04:04:20.706Z,20.15
2018-01-14T04:06:50.101Z,21.12
2018-01-14T04:09:19.557Z,20.55
2018-01-14T04:11:49.699Z,21.35
2018-01-14T04:14:19.066Z,19.35
2018-01-14T04:16:49.188Z,20.95
2018-01-14T04:19:18.869Z,19.67
2018-01-14T04:21:48.275Z,18.70
2018-01-14T04:24:17.623Z,21.02
2018-01-14T04:26:47.006Z,20.30
2018-01-14T04:29:17.132Z,19.87
2018-01-14T04:31:46.546Z,21.65
2018-01-14T04:34:15.976Z,22.10
2018-01-14T04:36:45.374Z,20.62
2018-01-14T04:39:14.786Z,19.90
2018-01-14T04:41:44.170Z,19.27
2018-01-14T04:44:13.519Z,19.75
2018-01-14T04:46:43.026Z,20.23
2018-01-14T04:49:12.396Z,20.08
2018-01-14T04:51:41.759Z,19.15
2018-01-14T04:54:11.894Z,18.92
2018-01-14T04:56:41.405Z,19.33
2018-01-14T04:59:10.792Z,20.27
2018-01-14T05:01:40.149Z,19.77
2018-01-14T05:04:09.511Z,19.02
2018-01-14T05:06:38.915Z,19.50
2018-01-14T05:09:08.323Z,20.83
2018-01-14T05:11:37.705Z,20.30
2018-01-14T05:14:07.074Z,20.45
2018-01-14T05:16:36.470Z,19.87
2018-01-14T05:19:05.871Z,20.73
2018-01-14T05:21:35.226Z,20.12
2018-01-14T05:24:04.593Z,18.23
2018-01-14T05:26:34.750Z,18.95
2018-01-14T05:29:04.162Z,18.75
2018-01-14T05:31:33.518Z,17.80
2018-01-14T05:34:03.648Z,18.27
2018-01-14T05:36:33.817Z,20.10
2018-01-14T05:39:03.196Z,18.10
2018-01-14T05:41:33.244Z,19.98
2018-01-14T05:44:02.612Z,19.20
2018-01-14T05:46:32.002Z,18.70
2018-01-14T05:49:01.365Z,19.80
2018-01-14T05:51:30.850Z,18.98
2018-01-14T05:54:00.219Z,19.23
2018-01-14T05:56:29.625Z,19.92
2018-01-14T05:58:59.004Z,19.87
2018-01-14T06:01:29.139Z,19.73
2018-01-14T06:03:58.544Z,18.70
2018-01-14T06:06:27.958Z,18.45
2018-01-14T06:08:57.371Z,20.15
2018-01-14T06:11:26.716Z,19.12
2018-01-14T06:13:56.085Z,19.77
2018-01-14T06:16:25.447Z,19.70
2018-01-14T06:18:55.589Z,18.58
2018-01-14T06:21:25.011Z,19.12
2018-01-14T06:23:54.428Z,19.25
2018-01-14T06:26:23.820Z,20.02
2018-01-14T06:28:53.197Z,18.25
2018-01-14T06:31:22.556Z,19.87
2018-01-14T06:33:51.907Z,19.20
2018-01-14T06:36:21.309Z,18.87
2018-01-14T06:38:50.696Z,18.00
2018-01-14T06:41:20.092Z,18.62
2018-01-14T06:43:49.684Z,19.40
2018-01-14T06:46:19.818Z,20.33
2018-01-14T06:48:49.240Z,18.30
2018-01-14T06:51:18.636Z,19.83
2018-01-14T06:53:48.019Z,18.58
2018-01-14T06:56:18.203Z,18.58
2018-01-14T06:58:47.597Z,18.20
2018-01-14T07:01:16.976Z,18.37
2018-01-14T07:03:46.384Z,18.83
2018-01-14T07:06:15.801Z,16.08
2018-01-14T07:08:45.160Z,16.55
2018-01-14T07:11:14.559Z,18.23
2018-01-14T07:13:44.750Z,17.30
2018-01-14T07:16:14.145Z,19.58
2018-01-14T07:18:43.537Z,18.42
2018-01-14T07:21:13.092Z,17.20
2018-01-14T07:23:42.487Z,15.50
2018-01-14T07:26:12.650Z,16.83
2018-01-14T07:28:42.080Z,17.70
2018-01-14T07:31:11.616Z,17.10
2018-01-14T07:33:41.213Z,16.45
2018-01-14T07:36:11.376Z,15.65
2018-01-14T07:38:40.789Z,15.40
2018-01-14T07:41:10.764Z,15.85
2018-01-14T07:43:40.932Z,18.20
2018-01-14T07:46:11.251Z,14.73
2018-01-14T07:48:40.662Z,16.27
2018-01-14T07:51:10.111Z,15.93
2018-01-14T07:53:40.225Z,16.58
2018-01-14T07:56:10.587Z,14.90
2018-01-14T07:58:39.943Z,15.68
2018-01-14T08:01:09.356Z,17.00
2018-01-14T08:03:39.550Z,14.38
2018-01-14T08:06:08.908Z,16.70
2018-01-14T08:08:38.264Z,17.33
2018-01-14T08:11:07.717Z,15.75
2018-01-14T08:13:37.106Z,16.35
2018-01-14T08:16:06.689Z,16.12
2018-01-14T08:18:36.798Z,15.10
2018-01-14T08:21:06.168Z,16.20
2018-01-14T08:23:35.566Z,16.10
2018-01-14T08:26:04.997Z,16.50
2018-01-14T08:28:34.567Z,14.65
2018-01-14T08:31:03.920Z,13.98
2018-01-14T08:33:34.060Z,15.05
2018-01-14T08:36:03.457Z,15.25
2018-01-14T08:38:32.926Z,16.75
2018-01-14T08:41:02.436Z,15.85
2018-01-14T08:43:31.844Z,14.98
2018-01-14T08:46:01.252Z,14.75
2018-01-14T08:48:30.627Z,15.55
2018-01-14T08:51:00.050Z,15.18
2018-01-14T08:53:29.600Z,14.40
2018-01-14T08:55:59.049Z,13.20
2018-01-14T08:58:28.405Z,14.00
2018-01-14T09:00:57.838Z,13.18
2018-01-14T09:03:27.238Z,13.40
2018-01-14T09:05:57.506Z,13.65
2018-01-14T09:08:27.691Z,12.65
2018-01-14T09:10:57.091Z,13.75
2018-01-14T09:13:26.511Z,14.98
2018-01-14T09:15:55.864Z,14.25
2018-01-14T09:18:25.299Z,13.18
2018-01-14T09:20:54.647Z,13.32
2018-01-14T09:23:24.981Z,12.85
2018-01-14T09:25:55.150Z,13.20
2018-01-14T09:28:24.542Z,12.82
2018-01-14T09:31:03.202Z,13.45
2018-01-14T09:33:32.694Z,14.05
2018-01-14T09:36:02.062Z,13.60
2018-01-14T09:38:31.443Z,14.82
2018-01-14T09:41:00.847Z,14.10
2018-01-14T09:43:30.203Z,14.25
2018-01-14T09:45:59.557Z,12.98
2018-01-14T09:48:28.958Z,12.60
2018-01-14T09:50:58.379Z,14.87
2018-01-14T09:53:27.749Z,13.65
2018-01-14T09:55:57.161Z,12.32
2018-01-14T09:58:26.568Z,14.23
2018-01-14T10:00:56.024Z,12.13
2018-01-14T10:03:25.420Z,11.40
2018-01-14T10:05:54.817Z,13.62
2018-01-14T10:08:24.196Z,11.77
2018-01-14T10:10:53.594Z,13.20
2018-01-14T10:13:22.990Z,12.55
2018-01-14T10:15:52.380Z,13.48
2018-01-14T10:18:21.730Z,13.88
2018-01-14T10:20:51.101Z,12.63
2018-01-14T10:23:20.466Z,12.80
2018-01-14T10:25:50.642Z,13.43
2018-01-14T10:28:20.033Z,13.62
2018-01-14T10:30:49.409Z,13.45
2018-01-14T10:33:18.804Z,11.80
2018-01-14T10:35:48.970Z,12.90
2018-01-14T10:38:18.377Z,13.10
2018-01-14T10:40:47.777Z,13.15
2018-01-14T10:43:17.220Z,12.43
2018-01-14T10:45:47.335Z,12.90
2018-01-14T10:48:17.474Z,13.75
2018-01-14T10:50:46.836Z,13.32
2018-01-14T10:53:16.788Z,14.35
2018-01-14T10:55:46.194Z,14.00
2018-01-14T10:58:15.574Z,14.05
2018-01-14T11:00:50.499Z,14.00
2018-01-14T11:03:20.142Z,14.32
2018-01-14T11:05:49.511Z,14.65
2018-01-14T11:08:18.913Z,14.10
2018-01-14T11:10:48.330Z,12.70
2018-01-14T11:13:18.445Z,13.30
2018-01-14T11:15:47.855Z,12.90
2018-01-14T11:18:18.036Z,14.25
2018-01-14T11:20:47.397Z,12.57
2018-01-14T11:25:52.097Z,13.35
2018-01-14T11:28:21.462Z,14.05
2018-01-14T11:30:50.827Z,12.70
2018-01-14T11:33:21.019Z,11.35
2018-01-14T11:35:50.430Z,14.02
2018-01-14T11:38:19.856Z,11.65
2018-01-14T11:40:50.047Z,12.18
2018-01-14T11:43:19.443Z,11.00
2018-01-14T11:45:48.876Z,12.80
2018-01-14T11:48:19.042Z,11.73
2018-01-14T11:50:48.449Z,12.30
2018-01-14T11:53:17.805Z,11.40
2018-01-14T11:55:47.993Z,10.98
2018-01-14T11:58:17.367Z,10.68
2018-01-14T12:00:46.752Z,11.80
2018-01-14T12:03:16.135Z,11.00
2018-01-14T12:05:46.317Z,11.12
2018-01-14T12:08:15.720Z,10.85
2018-01-14T12:10:45.092Z,10.85
2018-01-14T12:13:14.470Z,10.15
2018-01-14T12:15:44.589Z,11.70
2018-01-14T12:18:13.980Z,10.43
2018-01-14T12:20:44.109Z,10.80
2018-01-14T12:23:14.236Z,10.88
2018-01-14T12:25:43.599Z,10.77
2018-01-14T12:28:12.968Z,10.13
2018-01-14T12:30:42.366Z,11.18
2018-01-14T12:33:11.737Z,10.85
2018-01-14T12:35:41.136Z,11.40
2018-01-14T12:38:10.593Z,10.32
2018-01-14T12:40:40.020Z,9.73
2018-01-14T12:43:09.391Z,10.95
2018-01-14T12:45:38.787Z,12.57
2018-01-14T12:48:08.187Z,11.23
2018-01-14T12:50:37.537Z,9.63
2018-01-14T12:53:06.881Z,9.60
2018-01-14T12:55:36.256Z,10.85
2018-01-14T12:58:06.428Z,10.82
2018-01-14T13:00:35.802Z,10.27
2018-01-14T13:03:05.213Z,11.10
2018-01-14T13:05:34.611Z,10.30
2018-01-14T13:08:03.998Z,11.55
2018-01-14T13:10:33.389Z,12.60
2018-01-14T13:13:03.560Z,11.05
2018-01-14T13:15:32.980Z,10.82
2018-01-14T13:18:02.375Z,10.30
2018-01-14T13:20:31.731Z,10.52
2018-01-14T13:23:01.126Z,10.75
2018-01-14T13:25:31.312Z,10.48
2018-01-14T13:28:00.695Z,10.85
2018-01-14T13:30:30.422Z,8.60
2018-01-14T13:32:59.817Z,9.55
2018-01-14T13:35:29.184Z,9.25
2018-01-14T13:37:58.561Z,9.60
2018-01-14T13:40:28.730Z,9.88
2018-01-14T13:42:58.105Z,9.98
2018-01-14T13:45:27.489Z,8.65
2018-01-14T13:47:57.661Z,9.13
2018-01-14T13:50:27.092Z,10.85
2018-01-14T13:52:56.522Z,10.00
2018-01-14T13:55:26.720Z,8.88
2018-01-14T13:57:56.963Z,9.77
2018-01-14T14:00:27.105Z,9.90
2018-01-14T14:02:56.477Z,11.30
2018-01-14T14:05:26.614Z,10.13
2018-01-14T14:07:56.019Z,10.30
2018-01-14T14:10:25.436Z,9.70
2018-01-14T14:12:54.770Z,9.23
2018-01-14T14:15:24.111Z,9.02
2018-01-14T14:17:54.309Z,10.20
2018-01-14T14:20:23.660Z,9.18
2018-01-14T14:22:52.993Z,8.60
2018-01-14T14:25:22.431Z,9.95
2018-01-14T14:27:52.555Z,8.40
2018-01-14T14:30:22.673Z,8.63
2018-01-14T14:32:52.076Z,9.13
2018-01-14T14:35:22.216Z,9.23
2018-01-14T14:37:51.575Z,9.10
2018-01-14T14:40:20.947Z,8.52
2018-01-14T14:42:50.298Z,8.30
2018-01-14T14:45:19.658Z,9.15
2018-01-14T14:47:49.084Z,8.82
2018-01-14T14:50:18.494Z,8.05
2018-01-14T14:52:47.859Z,8.60
2018-01-14T14:55:17.205Z,8.80
2018-01-14T14:57:46.598Z,9.32
2018-01-14T15:00:15.993Z,8.85
2018-01-14T15:02:45.349Z,8.98
2018-01-14T15:05:14.747Z,8.68
2018-01-14T15:07:44.233Z,9.43
2018-01-14T15:10:14.386Z,9.30
2018-01-14T15:12:43.748Z,10.30
2018-01-14T15:15:13.864Z,9.00
2018-01-14T15:17:43.255Z,9.73
2018-01-14T15:20:12.656Z,9.68
2018-01-14T15:22:42.796Z,9.88
2018-01-14T15:25:12.920Z,9.65
2018-01-14T15:27:43.084Z,9.23
2018-01-14T15:30:12.492Z,15.55
2018-01-14T15:32:41.847Z,9.18
2018-01-14T15:35:12.010Z,8.70
2018-01-14T15:37:41.424Z,8.10
2018-01-14T15:40:10.767Z,8.85
2018-01-14T15:42:40.164Z,10.82
2018-01-14T15:45:10.369Z,9.93
2018-01-14T15:47:39.718Z,9.20
2018-01-14T15:50:09.234Z,8.48
2018-01-14T15:52:38.597Z,9.98
2018-01-14T15:55:07.962Z,8.93
2018-01-14T15:57:37.354Z,8.00
2018-01-14T16:00:06.762Z,9.70
2018-01-14T16:02:36.132Z,8.90
2018-01-14T16:05:05.546Z,8.98
2018-01-14T16:07:34.895Z,8.73
2018-01-14T16:10:04.282Z,8.40
2018-01-14T16:12:33.665Z,9.07
2018-01-14T16:15:03.176Z,8.55
2018-01-14T16:17:32.554Z,8.95
2018-01-14T16:20:01.916Z,8.75
2018-01-14T16:22:33.919Z,9.63
2018-01-14T16:25:04.243Z,9.27
2018-01-14T16:27:35.208Z,9.85
2018-01-14T16:30:05.854Z,10.63
2018-01-14T16:32:37.111Z,9.70
2018-01-14T16:35:07.243Z,9.15
2018-01-14T16:37:37.070Z,10.23
2018-01-14T16:40:07.240Z,9.40
2018-01-14T16:42:37.663Z,11.10
2018-01-14T16:45:08.017Z,10.00
2018-01-14T16:47:39.240Z,9.70
2018-01-14T16:50:10.008Z,9.82
2018-01-14T16:52:40.566Z,9.80
2018-01-14T16:55:10.647Z,9.10
2018-01-14T16:57:41.074Z,10.43
2018-01-14T17:00:11.179Z,10.82
2018-01-14T17:02:41.322Z,10.15
2018-01-14T17:05:11.232Z,10.68
2018-01-14T17:07:40.607Z,9.90
2018-01-14T17:10:10.013Z,10.15
2018-01-14T17:12:39.415Z,10.63
2018-01-14T17:15:08.773Z,9.70
2018-01-14T17:17:38.168Z,11.23
2018-01-14T17:20:07.524Z,9.63
2018-01-14T17:22:36.884Z,10.85
2018-01-14T17:25:06.229Z,9.73
2018-01-14T17:27:35.576Z,10.27
2018-01-14T17:30:04.929Z,10.98
2018-01-14T17:32:34.264Z,12.00
2018-01-14T17:35:04.449Z,11.55
2018-01-14T17:37:33.817Z,11.23
2018-01-14T17:40:03.202Z,12.27
2018-01-14T17:42:32.602Z,13.00
2018-01-14T17:45:02.839Z,11.35
2018-01-14T17:47:32.223Z,11.55
2018-01-14T17:50:01.571Z,12.85
2018-01-14T17:52:30.983Z,12.05
2018-01-14T17:55:00.391Z,11.70
2018-01-14T17:57:29.783Z,10.85
2018-01-14T17:59:59.166Z,12.05
2018-01-14T18:02:28.586Z,12.90
2018-01-14T18:04:57.979Z,11.82
2018-01-14T18:07:27.332Z,11.60
2018-01-14T18:09:57.543Z,11.00
2018-01-14T18:12:26.938Z,10.63
2018-01-14T18:14:56.317Z,9.23
2018-01-14T18:17:27.555Z,10.70
2018-01-14T18:19:57.730Z,11.00
2018-01-14T18:22:27.073Z,10.90
2018-01-14T18:24:56.560Z,9.63
2018-01-14T18:27:25.993Z,10.40
2018-01-14T18:29:55.423Z,12.43
2018-01-14T18:32:24.779Z,10.75
2018-01-14T18:34:54.178Z,10.27
2018-01-14T18:37:23.582Z,10.85
2018-01-14T18:39:52.982Z,12.05
2018-01-14T18:42:22.332Z,11.70
2018-01-14T18:44:51.692Z,10.90
2018-01-14T18:47:21.110Z,11.88
2018-01-14T18:49:50.520Z,12.77
2018-01-14T18:52:20.629Z,10.98
2018-01-14T18:54:49.978Z,10.65
2018-01-14T18:57:20.200Z,11.38
2018-01-14T18:59:50.326Z,10.98
2018-01-14T19:02:20.449Z,12.15
2018-01-14T19:04:49.778Z,11.27
2018-01-14T19:07:19.151Z,12.20
2018-01-14T19:09:48.499Z,13.05
2018-01-14T19:12:17.853Z,12.13
2018-01-14T19:14:47.290Z,12.80
2018-01-14T19:17:16.681Z,11.23
2018-01-14T19:19:46.066Z,13.90
2018-01-14T19:22:15.476Z,12.35
2018-01-14T19:24:44.866Z,12.37
2018-01-14T19:27:15.012Z,13.65
2018-01-14T19:29:44.400Z,14.38
2018-01-14T19:32:13.793Z,15.00
2018-01-14T19:34:43.176Z,13.48
2018-01-14T19:37:13.320Z,12.90
2018-01-14T19:39:42.679Z,13.30
2018-01-14T19:42:12.014Z,13.95
2018-01-14T19:44:42.188Z,15.73
2018-01-14T19:47:11.587Z,14.00
2018-01-14T19:49:40.981Z,14.95
2018-01-14T19:52:10.351Z,14.80
2018-01-14T19:54:39.741Z,15.38
2018-01-14T19:57:09.936Z,15.70
2018-01-14T19:59:39.300Z,14.65
2018-01-14T20:02:08.642Z,14.05
2018-01-14T20:04:38.064Z,13.55
2018-01-14T20:07:08.190Z,14.52
2018-01-14T20:09:38.329Z,15.05
2018-01-14T20:12:07.694Z,15.88
2018-01-14T20:14:37.816Z,15.45
2018-01-14T20:17:07.212Z,14.43
2018-01-14T20:19:36.577Z,15.05
2018-01-14T20:22:05.970Z,14.30
2018-01-14T20:24:35.330Z,13.60
2018-01-14T20:27:04.688Z,14.18
2018-01-14T20:29:34.059Z,13.30
2018-01-14T20:32:03.460Z,14.30
2018-01-14T20:34:32.872Z,14.85
2018-01-14T20:37:02.923Z,15.90
2018-01-14T20:39:32.271Z,16.20
2018-01-14T20:42:02.587Z,15.07
2018-01-14T20:44:32.704Z,15.52
2018-01-14T20:47:02.842Z,15.23
2018-01-14T20:49:32.195Z,13.62
2018-01-14T20:52:01.588Z,16.33
2018-01-14T20:54:31.000Z,16.95
2018-01-14T20:57:00.507Z,17.05
2018-01-14T20:59:29.909Z,16.33
2018-01-14T21:01:59.268Z,16.73
2018-01-14T21:04:30.233Z,16.48
2018-01-14T21:06:59.639Z,15.65
2018-01-14T21:09:29.033Z,17.08
2018-01-14T21:11:58.405Z,15.60
2018-01-14T21:14:27.815Z,15.25
2018-01-14T21:16:57.361Z,16.10
2018-01-14T21:19:26.707Z,14.80
2018-01-14T21:21:56.873Z,15.27
2018-01-14T21:24:26.275Z,15.60
2018-01-14T21:26:55.637Z,15.93
2018-01-14T21:29:25.818Z,16.65
2018-01-14T21:31:55.172Z,14.93
2018-01-14T21:34:24.532Z,16.12
2018-01-14T21:36:53.939Z,15.65
2018-01-14T21:39:23.324Z,15.32
2018-01-14T21:41:52.704Z,15.57
2018-01-14T21:44:22.108Z,15.85
2018-01-14T21:46:56.643Z,17.40
2018-01-14T21:49:26.043Z,15.38
2018-01-14T21:51:55.406Z,14.15
2018-01-14T21:54:24.769Z,14.45
2018-01-14T21:56:54.125Z,15.27
2018-01-14T21:59:23.671Z,14.73
2018-01-14T22:01:53.068Z,14.18
2018-01-14T22:04:22.430Z,15.30
2018-01-14T22:06:51.825Z,16.00
2018-01-14T22:09:21.212Z,14.80
2018-01-14T22:11:51.989Z,14.77
2018-01-14T22:14:22.092Z,14.63
2018-01-14T22:16:51.492Z,14.65
2018-01-14T22:19:20.852Z,15.07
2018-01-14T22:21:50.267Z,16.67
2018-01-14T22:24:20.402Z,16.62
2018-01-14T22:26:49.795Z,14.43
2018-01-14T22:29:19.949Z,18.55
2018-01-14T22:31:49.334Z,15.60
2018-01-14T22:34:18.722Z,17.10
2018-01-14T22:36:48.103Z,16.42
2018-01-14T22:39:17.468Z,15.13
2018-01-14T22:41:46.826Z,14.23
2018-01-14T22:44:16.947Z,17.48
2018-01-14T22:46:46.299Z,15.85
2018-01-14T22:49:15.692Z,17.62
2018-01-14T22:51:45.048Z,16.08
2018-01-14T22:54:15.266Z,16.37
2018-01-14T22:56:45.390Z,14.90
2018-01-14T22:59:14.799Z,13.98
2018-01-14T23:01:44.190Z,14.95
2018-01-14T23:04:14.307Z,15.27
2018-01-14T23:06:44.664Z,14.98
2018-01-14T23:09:14.017Z,14.40
2018-01-14T23:11:43.379Z,16.67
2018-01-14T23:14:12.774Z,15.30
2018-01-14T23:16:42.168Z,17.02
2018-01-14T23:19:11.529Z,16.15
2018-01-14T23:21:40.912Z,18.27
2018-01-14T23:24:10.262Z,16.20
2018-01-14T23:26:39.607Z,16.15
2018-01-14T23:29:09.111Z,19.15
2018-01-14T23:31:38.499Z,17.35
2018-01-14T23:34:07.885Z,17.70
2018-01-14T23:36:37.319Z,18.35
2018-01-14T23:39:06.702Z,16.00
2018-01-14T23:41:36.038Z,15.90
2018-01-14T23:44:05.409Z,15.65
2018-01-14T23:46:34.784Z,17.23
2018-01-14T23:49:04.191Z,16.20
2018-01-14T23:51:33.597Z,17.73
2018-01-14T23:54:02.943Z,17.90
2018-01-14T23:56:32.364Z,16.12
2018-01-14T23:59:01.703Z,16.10
